Terminal Aerodrome Forecast
Issued by NWS Charleston, WV

Current Version | Previous Version | Text Only | Print | Product List | Glossary Off
Versions: 1 2 3 4 5 6 7 8 9 10 11 12 13 14 15 16 17 18 19 20 21 22

000
FTUS41 KRLX 312300
TAFEKN
TAF
KEKN 312336Z 0100/0124 VRB03KT P6SM BKN025
      TEMPO 0102/0103 2SM SHRA BR BKN015
     FM010300 00000KT 5SM -RA BR OVC025
      TEMPO 0103/0107 2SM SHRA BR BKN015
     FM010700 00000KT 2SM BR OVC025
     FM010800 00000KT 2SM BR OVC025
     FM011200 00000KT 4SM BR BKN025
     FM011300 VRB03KT P6SM BKN025
     FM011600 25005KT P6SM BKN030
     FM012100 25006KT P6SM BKN035
     FM012300 24004KT P6SM SCT040=

USA.gov is the U.S. government's official web portal to all federal, state and local government web resources and services.